createdAt,value
2023-05-18T00:00:07.767Z,0.00
2023-05-18T00:01:07.737Z,0.00
2023-05-18T00:02:07.857Z,0.00
2023-05-18T00:03:07.866Z,0.00
2023-05-18T00:04:07.769Z,0.00
2023-05-18T00:05:07.702Z,0.00
2023-05-18T00:06:07.680Z,0.00
2023-05-18T00:07:07.653Z,0.00
2023-05-18T00:08:09.177Z,0.00
2023-05-18T00:09:07.641Z,0.00
2023-05-18T00:10:07.675Z,0.00
2023-05-18T00:11:07.653Z,0.00
2023-05-18T00:12:07.616Z,0.00
2023-05-18T00:13:07.605Z,0.00
2023-05-18T00:14:07.611Z,0.00
2023-05-18T00:15:07.580Z,0.00
2023-05-18T00:16:07.633Z,0.00
2023-05-18T00:17:07.547Z,0.00
2023-05-18T00:18:07.584Z,0.00
2023-05-18T00:19:15.251Z,0.00
2023-05-18T00:20:07.523Z,0.00
2023-05-18T00:21:07.515Z,0.00
2023-05-18T00:22:07.512Z,0.00
2023-05-18T00:23:07.475Z,0.00
2023-05-18T00:24:07.465Z,0.00
2023-05-18T00:25:07.457Z,0.00
2023-05-18T00:26:07.467Z,0.00
2023-05-18T00:27:07.465Z,0.00
2023-05-18T00:28:07.430Z,0.00
2023-05-18T00:29:07.428Z,0.00
2023-05-18T00:30:07.420Z,0.00
2023-05-18T00:31:07.483Z,0.00
2023-05-18T00:32:07.458Z,0.00
2023-05-18T00:33:07.437Z,0.00
2023-05-18T00:34:07.363Z,0.00
2023-05-18T00:35:07.345Z,0.00
2023-05-18T00:36:07.336Z,0.00
2023-05-18T00:37:07.345Z,0.00
2023-05-18T00:38:07.354Z,0.00
2023-05-18T00:39:07.334Z,0.00
2023-05-18T00:40:07.292Z,0.00
2023-05-18T00:41:07.288Z,0.00
2023-05-18T00:42:07.280Z,0.00
2023-05-18T00:43:07.283Z,0.00
2023-05-18T00:44:07.284Z,0.00
2023-05-18T00:45:07.265Z,0.00
2023-05-18T00:46:07.313Z,0.00
2023-05-18T00:47:07.213Z,0.00
2023-05-18T00:48:07.450Z,0.00
2023-05-18T00:49:07.205Z,0.00
2023-05-18T00:50:07.200Z,0.00
2023-05-18T00:51:07.217Z,0.00
2023-05-18T00:52:07.195Z,0.00
2023-05-18T00:53:07.157Z,0.00
2023-05-18T00:54:07.172Z,0.00
2023-05-18T00:55:07.143Z,0.00
2023-05-18T00:56:07.124Z,0.00
2023-05-18T00:57:07.152Z,0.00
2023-05-18T00:58:07.105Z,0.00
2023-05-18T00:59:07.088Z,0.00
2023-05-18T01:00:07.082Z,0.00
2023-05-18T01:01:07.131Z,0.00
2023-05-18T01:02:07.114Z,0.00
2023-05-18T01:03:07.227Z,0.00
2023-05-18T01:04:07.036Z,0.00
2023-05-18T01:05:07.033Z,0.00
2023-05-18T01:06:07.026Z,0.00
2023-05-18T01:07:07.104Z,0.00
2023-05-18T01:08:07.016Z,0.00
2023-05-18T01:09:07.197Z,0.00
2023-05-18T01:10:06.959Z,0.00
2023-05-18T01:11:07.047Z,0.00
2023-05-18T01:12:06.940Z,0.00
2023-05-18T01:13:06.951Z,0.00
2023-05-18T01:14:06.954Z,0.00
2023-05-18T01:15:06.913Z,0.00
2023-05-18T01:16:06.911Z,0.00
2023-05-18T01:17:07.065Z,0.00
2023-05-18T01:18:06.928Z,0.00
2023-05-18T01:19:06.916Z,0.00
2023-05-18T01:20:06.854Z,0.00
2023-05-18T01:21:06.835Z,0.00
2023-05-18T01:22:06.853Z,0.00
2023-05-18T01:23:06.826Z,0.00
2023-05-18T01:24:06.818Z,0.00
2023-05-18T01:25:06.812Z,0.00
2023-05-18T01:26:06.815Z,0.00
2023-05-18T01:27:06.777Z,0.00
2023-05-18T01:28:06.760Z,0.00
2023-05-18T01:29:06.771Z,0.00
2023-05-18T01:30:06.746Z,0.00
2023-05-18T01:31:06.772Z,0.00
2023-05-18T01:32:06.750Z,0.00
2023-05-18T01:33:06.757Z,0.00
2023-05-18T01:34:06.698Z,0.00
2023-05-18T01:35:06.690Z,0.00
2023-05-18T01:36:06.690Z,0.00
2023-05-18T01:37:06.707Z,0.00
2023-05-18T01:38:06.646Z,0.00
2023-05-18T01:39:06.658Z,0.00
2023-05-18T01:40:06.648Z,0.00
2023-05-18T01:41:06.616Z,0.00
2023-05-18T01:42:06.624Z,0.00
2023-05-18T01:43:06.631Z,0.00
2023-05-18T01:44:06.595Z,0.00
2023-05-18T01:45:06.570Z,0.00
2023-05-18T01:46:06.598Z,0.00
2023-05-18T01:47:06.559Z,0.00
2023-05-18T01:48:06.596Z,0.00
2023-05-18T01:49:06.581Z,0.00
2023-05-18T01:50:06.515Z,0.00
2023-05-18T01:51:06.522Z,0.00
2023-05-18T01:52:06.517Z,0.00
2023-05-18T01:53:06.499Z,0.00
2023-05-18T01:54:06.485Z,0.00
2023-05-18T01:55:06.507Z,0.00
2023-05-18T01:56:06.457Z,0.00
2023-05-18T01:57:06.657Z,0.00
2023-05-18T01:58:06.449Z,0.00
2023-05-18T01:59:06.425Z,0.00
2023-05-18T02:00:06.440Z,0.00
2023-05-18T02:01:06.402Z,0.00
2023-05-18T02:02:06.406Z,0.00
2023-05-18T02:03:06.474Z,0.00
2023-05-18T02:04:06.435Z,0.00
2023-05-18T02:05:06.388Z,0.00
2023-05-18T02:06:06.378Z,0.00
2023-05-18T02:07:06.365Z,0.00
2023-05-18T02:08:06.325Z,0.00
2023-05-18T02:09:06.325Z,0.00
2023-05-18T02:10:06.332Z,0.00
2023-05-18T02:11:06.298Z,0.00
2023-05-18T02:12:06.309Z,0.00
2023-05-18T02:13:06.262Z,0.00
2023-05-18T02:14:06.270Z,0.00
2023-05-18T02:15:06.247Z,0.00
2023-05-18T02:16:06.248Z,0.00
2023-05-18T02:17:06.227Z,0.00
2023-05-18T02:18:06.284Z,0.00
2023-05-18T02:19:06.246Z,0.00
2023-05-18T02:20:06.217Z,0.00
2023-05-18T02:21:06.216Z,0.00
2023-05-18T02:22:06.164Z,0.00
2023-05-18T02:23:06.189Z,0.00
2023-05-18T02:24:06.161Z,0.00
2023-05-18T02:25:06.179Z,0.00
2023-05-18T02:26:06.122Z,0.00
2023-05-18T02:27:06.128Z,0.00
2023-05-18T02:28:06.106Z,0.00
2023-05-18T02:29:06.114Z,0.00
2023-05-18T02:30:06.112Z,0.00
2023-05-18T02:31:06.089Z,0.00
2023-05-18T02:32:06.077Z,0.00
2023-05-18T02:33:06.101Z,0.00
2023-05-18T02:34:06.047Z,0.00
2023-05-18T02:35:06.056Z,0.00
2023-05-18T02:36:06.022Z,0.00
2023-05-18T02:37:06.131Z,0.00
2023-05-18T02:38:06.008Z,0.00
2023-05-18T02:39:05.975Z,0.00
2023-05-18T02:40:06.006Z,0.00
2023-05-18T02:41:05.973Z,0.00
2023-05-18T02:42:05.946Z,0.00
2023-05-18T02:43:05.944Z,0.00
2023-05-18T02:44:05.935Z,0.00
2023-05-18T02:45:05.910Z,0.00
2023-05-18T02:46:05.941Z,0.00
2023-05-18T02:47:05.913Z,0.00
2023-05-18T02:48:05.944Z,0.00
2023-05-18T02:49:05.876Z,0.00
2023-05-18T02:50:05.868Z,0.00
2023-05-18T02:51:05.909Z,0.00
2023-05-18T02:52:05.841Z,0.00
2023-05-18T02:53:05.863Z,0.00
2023-05-18T02:54:05.826Z,4.00
2023-05-18T02:55:05.840Z,4.00
2023-05-18T02:56:05.866Z,0.00
2023-05-18T02:57:05.824Z,0.00
2023-05-18T02:58:05.784Z,4.00
2023-05-18T02:59:08.004Z,4.00
2023-05-18T03:00:05.765Z,0.00
2023-05-18T03:01:05.768Z,4.00
2023-05-18T03:02:05.797Z,4.00
2023-05-18T03:03:05.802Z,4.00
2023-05-18T03:04:05.737Z,4.00
2023-05-18T03:05:05.736Z,4.00
2023-05-18T03:06:05.691Z,8.00
2023-05-18T03:07:05.689Z,8.00
2023-05-18T03:08:05.708Z,8.00
2023-05-18T03:09:05.686Z,8.00
2023-05-18T03:10:05.670Z,12.00
2023-05-18T03:11:05.631Z,12.00
2023-05-18T03:12:05.630Z,8.00
2023-05-18T03:13:05.615Z,12.00
2023-05-18T03:14:05.633Z,16.00
2023-05-18T03:15:05.605Z,16.00
2023-05-18T03:16:05.595Z,16.00
2023-05-18T03:17:05.712Z,20.00
2023-05-18T03:18:05.657Z,20.00
2023-05-18T03:19:05.591Z,24.00
2023-05-18T03:20:05.558Z,24.00
2023-05-18T03:21:05.544Z,28.00
2023-05-18T03:22:05.551Z,32.00
2023-05-18T03:23:05.510Z,32.00
2023-05-18T03:24:05.526Z,32.00
2023-05-18T03:25:05.514Z,36.00
2023-05-18T03:26:05.475Z,40.00
2023-05-18T03:27:05.481Z,44.00
2023-05-18T03:28:05.594Z,48.00
2023-05-18T03:29:05.451Z,52.00
2023-05-18T03:30:05.431Z,52.00
2023-05-18T03:31:13.077Z,56.00
2023-05-18T03:32:05.494Z,64.00
2023-05-18T03:33:05.551Z,68.00
2023-05-18T03:34:05.422Z,68.00
2023-05-18T03:35:05.378Z,76.00
2023-05-18T03:36:05.363Z,76.00
2023-05-18T03:37:05.367Z,80.00
2023-05-18T03:38:05.346Z,88.00
2023-05-18T03:39:05.368Z,88.00
2023-05-18T03:40:05.353Z,92.00
2023-05-18T03:41:05.345Z,100.00
2023-05-18T03:42:05.314Z,104.00
2023-05-18T03:43:05.303Z,108.00
2023-05-18T03:44:05.322Z,112.00
2023-05-18T03:45:05.283Z,116.00
2023-05-18T03:46:05.349Z,120.00
2023-05-18T03:47:05.247Z,124.00
2023-05-18T03:48:05.265Z,128.00
2023-05-18T03:49:05.234Z,132.00
2023-05-18T03:50:05.228Z,132.00
2023-05-18T03:51:05.226Z,140.00
2023-05-18T03:52:05.195Z,144.00
2023-05-18T03:53:05.183Z,148.00
2023-05-18T03:54:05.173Z,152.00
2023-05-18T03:55:05.223Z,156.00
2023-05-18T03:56:05.164Z,160.00
2023-05-18T03:57:05.157Z,160.00
2023-05-18T03:58:05.144Z,164.00
2023-05-18T03:59:05.118Z,168.00
2023-05-18T04:00:05.119Z,176.00
2023-05-18T04:01:05.143Z,176.00
2023-05-18T04:02:05.174Z,180.00
2023-05-18T04:03:05.200Z,184.00
2023-05-18T04:04:05.085Z,188.00
2023-05-18T04:05:05.056Z,192.00
2023-05-18T04:06:05.078Z,192.00
2023-05-18T04:07:05.051Z,196.00
2023-05-18T04:08:05.036Z,200.00
2023-05-18T04:09:05.033Z,200.00
2023-05-18T04:10:05.002Z,204.00
2023-05-18T04:11:05.008Z,212.00
2023-05-18T04:12:04.983Z,212.00
2023-05-18T04:13:05.009Z,216.00
2023-05-18T04:14:04.970Z,220.00
2023-05-18T04:15:04.940Z,220.00
2023-05-18T04:16:04.965Z,224.00
2023-05-18T04:17:04.954Z,224.00
2023-05-18T04:18:04.964Z,228.00
2023-05-18T04:19:07.186Z,236.00
2023-05-18T04:20:04.905Z,236.00
2023-05-18T04:21:04.911Z,240.00
2023-05-18T04:22:04.889Z,240.00
2023-05-18T04:23:04.869Z,248.00
2023-05-18T04:24:04.896Z,248.00
2023-05-18T04:25:04.847Z,256.00
2023-05-18T04:26:04.850Z,260.00
2023-05-18T04:27:04.816Z,260.00
2023-05-18T04:28:04.801Z,272.00
2023-05-18T04:29:04.847Z,268.00
2023-05-18T04:30:04.810Z,272.00
2023-05-18T04:31:04.783Z,276.00
2023-05-18T04:32:04.809Z,280.00
2023-05-18T04:33:04.761Z,288.00
2023-05-18T04:34:04.755Z,288.00
2023-05-18T04:35:04.726Z,292.00
2023-05-18T04:36:04.750Z,300.00
2023-05-18T04:37:04.707Z,300.00
2023-05-18T04:38:04.696Z,304.00
2023-05-18T04:39:04.698Z,308.00
2023-05-18T04:40:04.677Z,312.00
2023-05-18T04:41:04.673Z,316.00
2023-05-18T04:42:04.670Z,320.00
2023-05-18T04:43:04.665Z,324.00
2023-05-18T04:44:04.628Z,324.00
2023-05-18T04:45:04.693Z,332.00
2023-05-18T04:46:04.635Z,328.00
2023-05-18T04:47:04.642Z,332.00
2023-05-18T04:48:04.686Z,336.00
2023-05-18T04:49:04.586Z,336.00
2023-05-18T04:50:04.567Z,344.00
2023-05-18T04:51:04.553Z,348.00
2023-05-18T04:52:04.540Z,352.00
2023-05-18T04:53:04.558Z,356.00
2023-05-18T04:54:04.527Z,364.00
2023-05-18T04:55:04.524Z,368.00
2023-05-18T04:56:04.526Z,368.00
2023-05-18T04:57:04.486Z,360.00
2023-05-18T04:58:04.476Z,360.00
2023-05-18T04:59:04.506Z,384.00
2023-05-18T05:00:04.467Z,368.00
2023-05-18T05:01:04.550Z,408.00
2023-05-18T05:02:04.465Z,420.00
2023-05-18T05:03:04.573Z,432.00
2023-05-18T05:04:04.408Z,440.00
2023-05-18T05:05:04.394Z,444.00
2023-05-18T05:06:04.394Z,440.00
2023-05-18T05:07:04.397Z,432.00
2023-05-18T05:08:04.395Z,428.00
2023-05-18T05:09:04.346Z,428.00
2023-05-18T05:10:04.356Z,432.00
2023-05-18T05:11:04.324Z,444.00
2023-05-18T05:12:04.324Z,456.00
2023-05-18T05:13:04.342Z,480.00
2023-05-18T05:14:04.298Z,488.00
2023-05-18T05:15:04.288Z,512.00
2023-05-18T05:16:04.358Z,524.00
2023-05-18T05:17:04.288Z,528.00
2023-05-18T05:18:04.312Z,520.00
2023-05-18T05:20:13.529Z,564.00
2023-05-18T05:21:13.509Z,552.00
2023-05-18T05:22:13.517Z,612.00
2023-05-18T05:23:13.534Z,652.00
2023-05-18T05:24:13.459Z,632.00
2023-05-18T05:25:13.457Z,628.00
2023-05-18T05:26:13.471Z,556.00
2023-05-18T05:27:13.449Z,584.00
2023-05-18T05:28:14.174Z,540.00
2023-05-18T05:29:13.402Z,480.00
2023-05-18T05:30:13.416Z,488.00
2023-05-18T05:31:13.434Z,520.00
2023-05-18T05:32:13.393Z,520.00
2023-05-18T05:33:13.384Z,500.00
2023-05-18T05:34:13.345Z,488.00
2023-05-18T05:35:13.359Z,476.00
2023-05-18T05:36:13.320Z,480.00
2023-05-18T05:37:13.346Z,472.00
2023-05-18T05:38:13.323Z,436.00
2023-05-18T05:39:13.318Z,416.00
2023-05-18T05:40:13.315Z,460.00
2023-05-18T05:41:13.336Z,476.00
2023-05-18T05:42:13.260Z,480.00
2023-05-18T05:43:13.265Z,476.00
2023-05-18T05:44:13.255Z,488.00
2023-05-18T05:45:13.247Z,492.00
2023-05-18T05:46:13.239Z,504.00
2023-05-18T05:47:13.333Z,516.00
2023-05-18T05:48:13.874Z,516.00
2023-05-18T05:49:13.186Z,520.00
2023-05-18T05:50:13.190Z,524.00
2023-05-18T05:51:13.657Z,512.00
2023-05-18T05:52:13.164Z,520.00
2023-05-18T05:53:13.154Z,520.00
2023-05-18T05:54:13.144Z,520.00
2023-05-18T05:55:13.117Z,516.00
2023-05-18T05:56:13.119Z,516.00
2023-05-18T05:57:13.103Z,512.00
2023-05-18T05:58:13.080Z,508.00
2023-05-18T05:59:13.092Z,504.00
2023-05-18T06:00:13.083Z,508.00
2023-05-18T06:01:13.072Z,512.00
2023-05-18T06:02:13.192Z,512.00
2023-05-18T06:03:13.044Z,516.00
2023-05-18T06:04:13.093Z,528.00
2023-05-18T06:05:13.026Z,544.00
2023-05-18T06:06:12.992Z,564.00
2023-05-18T06:07:13.029Z,576.00
2023-05-18T06:08:12.989Z,588.00
2023-05-18T06:09:12.960Z,580.00
2023-05-18T06:10:12.950Z,584.00
2023-05-18T06:11:12.941Z,552.00
2023-05-18T06:12:12.926Z,624.00
2023-05-18T06:13:12.967Z,628.00
2023-05-18T06:14:12.922Z,524.00
2023-05-18T06:15:12.904Z,652.00
2023-05-18T06:16:12.920Z,664.00
2023-05-18T06:17:12.887Z,588.00
2023-05-18T06:18:13.786Z,544.00
2023-05-18T06:19:12.899Z,680.00
2023-05-18T06:20:12.855Z,672.00
2023-05-18T06:21:12.828Z,660.00
2023-05-18T06:22:12.821Z,636.00
2023-05-18T06:23:12.829Z,608.00
2023-05-18T06:24:12.846Z,600.00
2023-05-18T06:25:12.799Z,576.00
2023-05-18T06:26:12.770Z,620.00
2023-05-18T06:27:12.759Z,652.00
2023-05-18T06:28:12.791Z,664.00
2023-05-18T06:29:12.762Z,668.00
2023-05-18T06:30:12.765Z,664.00
2023-05-18T06:31:12.750Z,600.00
2023-05-18T06:32:12.744Z,540.00
2023-05-18T06:33:12.798Z,548.00
2023-05-18T06:34:12.688Z,596.00
2023-05-18T06:35:12.685Z,652.00
2023-05-18T06:36:12.698Z,628.00
2023-05-18T06:37:12.666Z,628.00
2023-05-18T06:38:12.641Z,620.00
2023-05-18T06:39:12.656Z,612.00
2023-05-18T06:40:12.628Z,596.00
2023-05-18T06:41:12.626Z,600.00
2023-05-18T06:42:12.614Z,600.00
2023-05-18T06:43:12.610Z,588.00
2023-05-18T06:44:12.595Z,584.00
2023-05-18T06:45:12.585Z,584.00
2023-05-18T06:46:12.599Z,540.00
2023-05-18T06:47:12.556Z,580.00
2023-05-18T06:48:12.538Z,576.00
2023-05-18T06:49:12.525Z,552.00
2023-05-18T06:50:12.528Z,580.00
2023-05-18T06:51:12.503Z,588.00
2023-05-18T06:52:12.619Z,588.00
2023-05-18T06:53:12.487Z,588.00
2023-05-18T06:54:12.478Z,584.00
2023-05-18T06:55:12.455Z,580.00
2023-05-18T06:56:12.466Z,584.00
2023-05-18T06:57:12.450Z,576.00
2023-05-18T06:58:12.449Z,580.00
2023-05-18T06:59:12.432Z,588.00
2023-05-18T07:00:12.459Z,584.00
2023-05-18T07:01:12.425Z,580.00
2023-05-18T07:02:12.382Z,580.00
2023-05-18T07:03:12.472Z,584.00
2023-05-18T07:04:12.402Z,580.00
2023-05-18T07:05:12.366Z,580.00
2023-05-18T07:06:12.366Z,580.00
2023-05-18T07:07:12.330Z,584.00
2023-05-18T07:08:12.386Z,580.00
2023-05-18T07:09:12.310Z,584.00
2023-05-18T07:10:12.288Z,584.00
2023-05-18T07:11:12.298Z,584.00
2023-05-18T07:12:12.295Z,584.00
2023-05-18T07:13:12.259Z,584.00
2023-05-18T07:14:12.262Z,584.00
2023-05-18T07:15:12.258Z,580.00
2023-05-18T07:16:12.274Z,584.00
2023-05-18T07:17:12.238Z,580.00
2023-05-18T07:18:12.223Z,580.00
2023-05-18T07:19:12.199Z,584.00
2023-05-18T07:20:12.188Z,576.00
2023-05-18T07:21:12.175Z,580.00
2023-05-18T07:22:12.168Z,580.00
2023-05-18T07:23:12.187Z,576.00
2023-05-18T07:24:12.182Z,580.00
2023-05-18T07:25:12.125Z,580.00
2023-05-18T07:26:12.142Z,580.00
2023-05-18T07:27:12.123Z,584.00
2023-05-18T07:28:12.117Z,580.00
2023-05-18T07:29:12.105Z,584.00
2023-05-18T07:30:12.074Z,572.00
2023-05-18T07:31:12.083Z,580.00
2023-05-18T07:32:12.046Z,564.00
2023-05-18T07:33:12.087Z,564.00
2023-05-18T07:34:12.038Z,556.00
2023-05-18T07:35:12.033Z,564.00
2023-05-18T07:36:12.002Z,556.00
2023-05-18T07:37:11.996Z,568.00
2023-05-18T07:38:11.988Z,580.00
2023-05-18T07:39:11.976Z,580.00
2023-05-18T07:40:12.001Z,580.00
2023-05-18T07:41:11.948Z,572.00
2023-05-18T07:42:11.957Z,584.00
2023-05-18T07:43:11.927Z,596.00
2023-05-18T07:44:11.934Z,588.00
2023-05-18T07:45:11.922Z,580.00
2023-05-18T07:46:11.970Z,576.00
2023-05-18T07:47:11.950Z,556.00
2023-05-18T07:48:11.916Z,548.00
2023-05-18T07:49:11.864Z,556.00
2023-05-18T07:50:11.889Z,552.00
2023-05-18T07:51:11.847Z,524.00
2023-05-18T07:52:11.839Z,536.00
2023-05-18T07:53:11.825Z,584.00
2023-05-18T07:54:11.827Z,604.00
2023-05-18T07:55:11.808Z,608.00
2023-05-18T07:56:11.832Z,612.00
2023-05-18T07:57:11.785Z,612.00
2023-05-18T07:58:11.783Z,608.00
2023-05-18T07:59:11.755Z,628.00
2023-05-18T08:00:11.758Z,620.00
2023-05-18T08:01:11.734Z,624.00
2023-05-18T08:02:11.762Z,660.00
2023-05-18T08:03:12.022Z,652.00
2023-05-18T08:04:11.807Z,652.00
2023-05-18T08:05:11.685Z,636.00
2023-05-18T08:06:11.678Z,580.00
2023-05-18T08:07:11.668Z,580.00
2023-05-18T08:08:11.651Z,616.00
2023-05-18T08:09:11.672Z,608.00
2023-05-18T08:10:11.636Z,628.00
2023-05-18T08:11:11.615Z,656.00
2023-05-18T08:12:11.626Z,684.00
2023-05-18T08:13:11.601Z,620.00
2023-05-18T08:14:11.626Z,664.00
2023-05-18T08:15:11.582Z,492.00
2023-05-18T08:16:12.544Z,456.00
2023-05-18T08:17:11.637Z,456.00
2023-05-18T08:18:11.594Z,468.00
2023-05-18T08:19:11.593Z,616.00
2023-05-18T08:20:11.544Z,640.00
2023-05-18T08:21:11.521Z,552.00
2023-05-18T08:22:11.491Z,560.00
2023-05-18T08:23:11.483Z,744.00
2023-05-18T08:24:11.491Z,684.00
2023-05-18T08:25:11.455Z,632.00
2023-05-18T08:26:13.152Z,732.00
2023-05-18T08:27:11.477Z,896.00
2023-05-18T08:28:11.453Z,840.00
2023-05-18T08:29:11.416Z,972.00
2023-05-18T08:30:11.412Z,972.00
2023-05-18T08:31:11.411Z,732.00
2023-05-18T08:32:11.576Z,716.00
2023-05-18T08:33:11.407Z,752.00
2023-05-18T08:34:11.367Z,972.00
2023-05-18T08:35:11.366Z,1032.00
2023-05-18T08:36:11.358Z,1080.00
2023-05-18T08:37:11.326Z,1120.00
2023-05-18T08:38:11.329Z,1116.00
2023-05-18T08:39:11.304Z,1076.00
2023-05-18T08:40:11.317Z,1052.00
2023-05-18T08:41:11.323Z,848.00
2023-05-18T08:42:11.291Z,996.00
2023-05-18T08:43:11.265Z,704.00
2023-05-18T08:44:11.266Z,716.00
2023-05-18T08:45:11.234Z,1052.00
2023-05-18T08:46:11.244Z,936.00
2023-05-18T08:47:11.217Z,840.00
2023-05-18T08:48:11.246Z,1068.00
2023-05-18T08:49:11.240Z,1068.00
2023-05-18T08:50:11.176Z,724.00
2023-05-18T08:51:11.212Z,948.00
2023-05-18T08:52:11.156Z,1104.00
2023-05-18T08:53:11.154Z,1072.00
2023-05-18T08:54:11.140Z,1068.00
2023-05-18T08:55:12.338Z,1056.00
2023-05-18T08:56:11.147Z,1040.00
2023-05-18T08:57:11.121Z,1052.00
2023-05-18T08:58:11.128Z,1064.00
2023-05-18T08:59:11.104Z,1064.00
2023-05-18T09:00:11.222Z,1068.00
2023-05-18T09:01:11.121Z,1076.00
2023-05-18T09:02:11.171Z,1104.00
2023-05-18T09:03:11.168Z,828.00
2023-05-18T09:04:11.045Z,816.00
2023-05-18T09:05:11.080Z,744.00
2023-05-18T09:06:11.037Z,1096.00
2023-05-18T09:07:11.026Z,728.00
2023-05-18T09:08:10.976Z,736.00
2023-05-18T09:09:10.974Z,788.00
2023-05-18T09:10:10.957Z,816.00
2023-05-18T09:11:10.952Z,800.00
2023-05-18T09:12:10.950Z,772.00
2023-05-18T09:13:10.959Z,756.00
2023-05-18T09:14:10.920Z,780.00
2023-05-18T09:15:10.918Z,820.00
2023-05-18T09:16:11.017Z,924.00
2023-05-18T09:17:10.884Z,1024.00
2023-05-18T09:18:10.913Z,1084.00
2023-05-18T09:19:10.933Z,784.00
2023-05-18T09:20:10.858Z,1120.00
2023-05-18T09:21:10.894Z,1100.00
2023-05-18T09:22:10.852Z,1072.00
2023-05-18T09:23:10.817Z,1072.00
2023-05-18T09:24:10.821Z,1052.00
2023-05-18T09:25:10.876Z,976.00
2023-05-18T09:26:10.789Z,1016.00
2023-05-18T09:27:10.785Z,1012.00
2023-05-18T09:28:10.794Z,1012.00
2023-05-18T09:29:10.752Z,984.00
2023-05-18T09:30:10.752Z,1012.00
2023-05-18T09:31:10.746Z,896.00
2023-05-18T09:32:10.794Z,860.00
2023-05-18T09:33:10.801Z,868.00
2023-05-18T09:34:10.783Z,844.00
2023-05-18T09:35:10.690Z,828.00
2023-05-18T09:36:10.681Z,904.00
2023-05-18T09:37:10.754Z,980.00
2023-05-18T09:38:10.653Z,1000.00
2023-05-18T09:39:10.670Z,992.00
2023-05-18T09:40:10.663Z,1012.00
2023-05-18T09:41:10.632Z,1044.00
2023-05-18T09:42:10.640Z,1048.00
2023-05-18T09:43:10.596Z,1036.00
2023-05-18T09:44:10.615Z,1012.00
2023-05-18T09:45:10.599Z,1028.00
2023-05-18T09:46:10.573Z,1040.00
2023-05-18T09:47:10.640Z,1036.00
2023-05-18T09:48:10.642Z,1044.00
2023-05-18T09:49:10.532Z,1048.00
2023-05-18T09:50:10.536Z,1040.00
2023-05-18T09:51:10.538Z,1036.00
2023-05-18T09:52:10.498Z,1040.00
2023-05-18T09:53:10.494Z,1044.00
2023-05-18T09:54:10.559Z,1056.00
2023-05-18T09:55:10.465Z,852.00
2023-05-18T09:56:10.472Z,608.00
2023-05-18T09:57:11.512Z,776.00
2023-05-18T09:58:10.434Z,600.00
2023-05-18T09:59:10.441Z,1020.00
2023-05-18T10:00:10.407Z,1016.00
2023-05-18T10:01:10.403Z,1008.00
2023-05-18T10:02:10.393Z,856.00
2023-05-18T10:03:10.421Z,592.00
2023-05-18T10:04:10.476Z,580.00
2023-05-18T10:05:10.376Z,568.00
2023-05-18T10:06:10.382Z,544.00
2023-05-18T10:07:10.334Z,648.00
2023-05-18T10:08:10.327Z,552.00
2023-05-18T10:09:10.318Z,552.00
2023-05-18T10:10:10.314Z,556.00
2023-05-18T10:11:10.328Z,580.00
2023-05-18T10:12:10.280Z,600.00
2023-05-18T10:13:10.274Z,612.00
2023-05-18T10:14:10.264Z,620.00
2023-05-18T10:15:10.245Z,608.00
2023-05-18T10:16:10.251Z,648.00
2023-05-18T10:17:15.528Z,676.00
2023-05-18T10:18:11.245Z,664.00
2023-05-18T10:19:10.261Z,692.00
2023-05-18T10:20:10.236Z,792.00
2023-05-18T10:21:10.186Z,1216.00
2023-05-18T10:22:10.185Z,756.00
2023-05-18T10:23:10.198Z,748.00
2023-05-18T10:24:10.161Z,756.00
2023-05-18T10:25:10.141Z,884.00
2023-05-18T10:26:10.394Z,732.00
2023-05-18T10:27:10.120Z,708.00
2023-05-18T10:28:10.125Z,684.00
2023-05-18T10:29:10.155Z,660.00
2023-05-18T10:30:10.087Z,720.00
2023-05-18T10:31:10.126Z,644.00
2023-05-18T10:32:10.088Z,912.00
2023-05-18T10:33:20.722Z,616.00
2023-05-18T10:34:11.050Z,616.00
2023-05-18T10:35:10.021Z,608.00
2023-05-18T10:36:10.152Z,640.00
2023-05-18T10:37:11.918Z,572.00
2023-05-18T10:38:09.993Z,788.00
2023-05-18T10:39:10.002Z,516.00
2023-05-18T10:40:09.986Z,488.00
2023-05-18T10:41:09.966Z,480.00
2023-05-18T10:42:09.968Z,456.00
2023-05-18T10:43:09.985Z,452.00
2023-05-18T10:44:09.929Z,812.00
2023-05-18T10:45:09.935Z,424.00
2023-05-18T10:46:10.048Z,396.00
2023-05-18T10:47:09.945Z,420.00
2023-05-18T10:48:09.906Z,928.00
2023-05-18T10:49:09.907Z,764.00
2023-05-18T10:50:09.882Z,872.00
2023-05-18T10:51:09.870Z,968.00
2023-05-18T10:52:09.873Z,1016.00
2023-05-18T10:53:09.835Z,668.00
2023-05-18T10:54:09.826Z,592.00
2023-05-18T10:55:09.841Z,556.00
2023-05-18T10:56:09.801Z,956.00
2023-05-18T10:57:09.793Z,648.00
2023-05-18T10:58:09.776Z,460.00
2023-05-18T10:59:09.777Z,460.00
2023-05-18T11:00:09.758Z,380.00
2023-05-18T11:01:09.824Z,376.00
2023-05-18T11:02:09.866Z,368.00
2023-05-18T11:03:09.850Z,388.00
2023-05-18T11:04:09.746Z,444.00
2023-05-18T11:05:09.826Z,912.00
2023-05-18T11:06:09.690Z,916.00
2023-05-18T11:07:09.676Z,936.00
2023-05-18T11:08:09.717Z,952.00
2023-05-18T11:09:09.673Z,952.00
2023-05-18T11:10:09.668Z,532.00
2023-05-18T11:11:09.693Z,956.00
2023-05-18T11:12:09.628Z,940.00
2023-05-18T11:13:09.610Z,908.00
2023-05-18T11:14:09.635Z,884.00
2023-05-18T11:15:09.604Z,872.00
2023-05-18T11:16:09.644Z,860.00
2023-05-18T11:17:09.583Z,848.00
2023-05-18T11:18:09.611Z,856.00
2023-05-18T11:19:09.605Z,864.00
2023-05-18T11:20:09.625Z,860.00
2023-05-18T11:21:09.550Z,860.00
2023-05-18T11:22:09.511Z,864.00
2023-05-18T11:23:09.499Z,880.00
2023-05-18T11:24:09.544Z,888.00
2023-05-18T11:25:09.521Z,880.00
2023-05-18T11:26:09.478Z,896.00
2023-05-18T11:27:09.450Z,472.00
2023-05-18T11:28:09.489Z,444.00
2023-05-18T11:29:09.434Z,520.00
2023-05-18T11:31:10.436Z,760.00
2023-05-18T11:32:09.598Z,892.00
2023-05-18T11:33:09.607Z,820.00
2023-05-18T11:34:09.426Z,924.00
2023-05-18T11:35:09.370Z,912.00
2023-05-18T11:36:09.407Z,912.00
2023-05-18T11:37:09.362Z,912.00
2023-05-18T11:38:09.340Z,888.00
2023-05-18T11:39:09.360Z,780.00
2023-05-18T11:40:11.081Z,556.00
2023-05-18T11:41:09.317Z,528.00
2023-05-18T11:42:09.302Z,544.00
2023-05-18T11:43:09.286Z,640.00
2023-05-18T11:44:09.302Z,940.00
2023-05-18T11:45:09.249Z,952.00
2023-05-18T11:46:09.242Z,532.00
2023-05-18T11:47:09.278Z,528.00
2023-05-18T11:48:09.360Z,564.00
2023-05-18T11:49:09.312Z,620.00
2023-05-18T11:50:09.227Z,744.00
2023-05-18T11:51:09.188Z,792.00
2023-05-18T11:52:09.191Z,672.00
2023-05-18T11:53:09.179Z,692.00
2023-05-18T11:54:09.216Z,728.00
2023-05-18T11:55:09.175Z,840.00
2023-05-18T11:56:09.172Z,872.00
2023-05-18T11:57:09.903Z,1052.00
2023-05-18T11:58:09.528Z,984.00
2023-05-18T11:59:09.096Z,964.00
2023-05-18T12:00:09.110Z,940.00
2023-05-18T12:01:09.109Z,896.00
2023-05-18T12:02:09.083Z,912.00
2023-05-18T12:03:09.188Z,876.00
2023-05-18T12:04:09.192Z,904.00
2023-05-18T12:05:09.065Z,960.00
2023-05-18T12:06:09.051Z,916.00
2023-05-18T12:07:09.004Z,984.00
2023-05-18T12:08:09.008Z,980.00
2023-05-18T12:09:09.004Z,920.00
2023-05-18T12:10:09.009Z,888.00
2023-05-18T12:11:08.970Z,868.00
2023-05-18T12:12:08.998Z,876.00
2023-05-18T12:13:08.975Z,868.00
2023-05-18T12:14:08.932Z,908.00
2023-05-18T12:15:08.912Z,904.00
2023-05-18T12:16:08.929Z,892.00
2023-05-18T12:17:08.956Z,908.00
2023-05-18T12:18:08.952Z,908.00
2023-05-18T12:19:08.904Z,928.00
2023-05-18T12:20:08.889Z,924.00
2023-05-18T12:21:08.912Z,932.00
2023-05-18T12:22:08.838Z,936.00
2023-05-18T12:23:08.834Z,948.00
2023-05-18T12:24:08.840Z,960.00
2023-05-18T12:25:08.804Z,944.00
2023-05-18T12:26:08.811Z,944.00
2023-05-18T12:27:08.816Z,936.00
2023-05-18T12:28:08.841Z,928.00
2023-05-18T12:29:08.784Z,932.00
2023-05-18T12:30:08.795Z,948.00
2023-05-18T12:31:08.777Z,960.00
2023-05-18T12:32:08.750Z,996.00
2023-05-18T12:33:08.755Z,992.00
2023-05-18T12:34:08.727Z,960.00
2023-05-18T12:35:08.704Z,944.00
2023-05-18T12:36:08.716Z,932.00
2023-05-18T12:37:08.675Z,936.00
2023-05-18T12:38:08.682Z,952.00
2023-05-18T12:39:08.678Z,956.00
2023-05-18T12:40:08.648Z,992.00
2023-05-18T12:41:08.690Z,1040.00